sensor_id;sensor_type;location;lat;lon;timestamp;temperature;humidity
22456;DHT22;11395;53.204;6.502;2023-03-11T00:00:02;20.90;53.70
22456;DHT22;11395;53.204;6.502;2023-03-11T00:02:32;20.90;53.70
22456;DHT22;11395;53.204;6.502;2023-03-11T00:04:58;20.90;53.70
22456;DHT22;11395;53.204;6.502;2023-03-11T00:07:24;20.80;53.60
22456;DHT22;11395;53.204;6.502;2023-03-11T00:09:50;20.80;53.70
22456;DHT22;11395;53.204;6.502;2023-03-11T00:12:17;20.80;53.70
22456;DHT22;11395;53.204;6.502;2023-03-11T00:14:43;20.70;53.60
22456;DHT22;11395;53.204;6.502;2023-03-11T00:17:09;20.70;53.70
22456;DHT22;11395;53.204;6.502;2023-03-11T00:19:35;20.70;53.70
22456;DHT22;11395;53.204;6.502;2023-03-11T00:22:01;20.70;53.70
22456;DHT22;11395;53.204;6.502;2023-03-11T00:24:28;20.70;53.70
22456;DHT22;11395;53.204;6.502;2023-03-11T00:26:54;20.60;53.80
22456;DHT22;11395;53.204;6.502;2023-03-11T00:29:20;20.60;53.70
22456;DHT22;11395;53.204;6.502;2023-03-11T00:31:46;20.60;53.70
22456;DHT22;11395;53.204;6.502;2023-03-11T00:34:12;20.50;53.70
22456;DHT22;11395;53.204;6.502;2023-03-11T00:36:39;20.50;53.70
22456;DHT22;11395;53.204;6.502;2023-03-11T00:39:05;20.50;53.70
22456;DHT22;11395;53.204;6.502;2023-03-11T00:41:33;20.40;53.60
22456;DHT22;11395;53.204;6.502;2023-03-11T00:44:00;20.40;53.60
22456;DHT22;11395;53.204;6.502;2023-03-11T00:46:26;20.40;53.70
22456;DHT22;11395;53.204;6.502;2023-03-11T00:48:53;20.40;53.70
22456;DHT22;11395;53.204;6.502;2023-03-11T00:51:19;20.30;53.70
22456;DHT22;11395;53.204;6.502;2023-03-11T00:53:46;20.30;53.80
22456;DHT22;11395;53.204;6.502;2023-03-11T00:56:13;20.30;53.80
22456;DHT22;11395;53.204;6.502;2023-03-11T00:58:43;20.20;53.80
22456;DHT22;11395;53.204;6.502;2023-03-11T01:01:15;20.20;53.70
22456;DHT22;11395;53.204;6.502;2023-03-11T01:03:42;20.20;53.90
22456;DHT22;11395;53.204;6.502;2023-03-11T01:06:10;20.10;54.10
22456;DHT22;11395;53.204;6.502;2023-03-11T01:08:36;20.10;54.00
22456;DHT22;11395;53.204;6.502;2023-03-11T01:11:05;20.10;54.00
22456;DHT22;11395;53.204;6.502;2023-03-11T01:13:32;20.00;53.90
22456;DHT22;11395;53.204;6.502;2023-03-11T01:15:58;20.00;53.90
22456;DHT22;11395;53.204;6.502;2023-03-11T01:18:26;20.00;53.90
22456;DHT22;11395;53.204;6.502;2023-03-11T01:20:53;19.90;54.00
22456;DHT22;11395;53.204;6.502;2023-03-11T01:23:19;19.90;54.00
22456;DHT22;11395;53.204;6.502;2023-03-11T01:25:47;19.90;54.00
22456;DHT22;11395;53.204;6.502;2023-03-11T01:28:13;19.90;54.00
22456;DHT22;11395;53.204;6.502;2023-03-11T01:30:40;19.90;54.10
22456;DHT22;11395;53.204;6.502;2023-03-11T01:33:13;19.80;53.90
22456;DHT22;11395;53.204;6.502;2023-03-11T01:35:40;19.80;54.00
22456;DHT22;11395;53.204;6.502;2023-03-11T01:38:07;19.70;53.90
22456;DHT22;11395;53.204;6.502;2023-03-11T01:40:44;19.70;54.10
22456;DHT22;11395;53.204;6.502;2023-03-11T01:43:39;19.70;54.10
22456;DHT22;11395;53.204;6.502;2023-03-11T01:48:48;19.60;54.20
22456;DHT22;11395;53.204;6.502;2023-03-11T01:51:18;19.60;54.20
22456;DHT22;11395;53.204;6.502;2023-03-11T01:53:45;19.60;54.20
22456;DHT22;11395;53.204;6.502;2023-03-11T01:56:12;19.50;54.30
22456;DHT22;11395;53.204;6.502;2023-03-11T01:58:41;19.50;54.30
22456;DHT22;11395;53.204;6.502;2023-03-11T02:01:10;19.50;54.40
22456;DHT22;11395;53.204;6.502;2023-03-11T02:03:39;19.50;54.40
22456;DHT22;11395;53.204;6.502;2023-03-11T02:06:09;19.40;54.30
22456;DHT22;11395;53.204;6.502;2023-03-11T02:08:37;19.40;54.40
22456;DHT22;11395;53.204;6.502;2023-03-11T02:11:09;19.40;54.40
22456;DHT22;11395;53.204;6.502;2023-03-11T02:13:38;19.40;54.50
22456;DHT22;11395;53.204;6.502;2023-03-11T02:16:06;19.30;54.40
22456;DHT22;11395;53.204;6.502;2023-03-11T02:18:32;19.30;54.50
22456;DHT22;11395;53.204;6.502;2023-03-11T02:21:31;19.20;54.40
22456;DHT22;11395;53.204;6.502;2023-03-11T02:24:03;19.20;54.60
22456;DHT22;11395;53.204;6.502;2023-03-11T02:29:22;19.20;54.80
22456;DHT22;11395;53.204;6.502;2023-03-11T02:31:50;19.20;54.80
22456;DHT22;11395;53.204;6.502;2023-03-11T02:34:24;19.30;55.10
22456;DHT22;11395;53.204;6.502;2023-03-11T02:36:51;19.30;54.70
22456;DHT22;11395;53.204;6.502;2023-03-11T02:39:44;19.40;54.70
22456;DHT22;11395;53.204;6.502;2023-03-11T02:42:26;19.40;54.60
22456;DHT22;11395;53.204;6.502;2023-03-11T02:45:07;19.50;54.50
22456;DHT22;11395;53.204;6.502;2023-03-11T02:47:35;19.50;54.50
22456;DHT22;11395;53.204;6.502;2023-03-11T02:50:03;19.50;54.30
22456;DHT22;11395;53.204;6.502;2023-03-11T02:52:33;19.50;54.30
22456;DHT22;11395;53.204;6.502;2023-03-11T02:54:59;19.50;54.30
22456;DHT22;11395;53.204;6.502;2023-03-11T02:57:25;19.60;54.50
22456;DHT22;11395;53.204;6.502;2023-03-11T02:59:52;19.50;54.40
22456;DHT22;11395;53.204;6.502;2023-03-11T03:02:19;19.60;54.30
22456;DHT22;11395;53.204;6.502;2023-03-11T03:04:46;19.50;54.40
22456;DHT22;11395;53.204;6.502;2023-03-11T03:07:13;19.60;54.40
22456;DHT22;11395;53.204;6.502;2023-03-11T03:09:39;19.50;54.20
22456;DHT22;11395;53.204;6.502;2023-03-11T03:12:05;19.50;54.20
22456;DHT22;11395;53.204;6.502;2023-03-11T03:14:33;19.50;54.40
22456;DHT22;11395;53.204;6.502;2023-03-11T03:17:00;19.50;54.30
22456;DHT22;11395;53.204;6.502;2023-03-11T03:19:26;19.50;54.00
22456;DHT22;11395;53.204;6.502;2023-03-11T03:21:53;19.50;54.10
22456;DHT22;11395;53.204;6.502;2023-03-11T03:24:21;19.40;54.00
22456;DHT22;11395;53.204;6.502;2023-03-11T03:26:47;19.40;54.10
22456;DHT22;11395;53.204;6.502;2023-03-11T03:29:14;19.40;54.20
22456;DHT22;11395;53.204;6.502;2023-03-11T03:31:40;19.40;54.10
22456;DHT22;11395;53.204;6.502;2023-03-11T03:34:07;19.40;54.10
22456;DHT22;11395;53.204;6.502;2023-03-11T03:36:34;19.40;54.00
22456;DHT22;11395;53.204;6.502;2023-03-11T03:39:03;19.40;54.00
22456;DHT22;11395;53.204;6.502;2023-03-11T03:41:33;19.30;53.90
22456;DHT22;11395;53.204;6.502;2023-03-11T03:44:00;19.30;54.00
22456;DHT22;11395;53.204;6.502;2023-03-11T03:46:27;19.30;54.10
22456;DHT22;11395;53.204;6.502;2023-03-11T03:48:56;19.30;54.20
22456;DHT22;11395;53.204;6.502;2023-03-11T03:51:23;19.30;54.20
22456;DHT22;11395;53.204;6.502;2023-03-11T03:54:00;19.30;54.10
22456;DHT22;11395;53.204;6.502;2023-03-11T03:56:26;19.30;54.20
22456;DHT22;11395;53.204;6.502;2023-03-11T03:58:53;19.30;54.20
22456;DHT22;11395;53.204;6.502;2023-03-11T04:01:20;19.30;54.20
22456;DHT22;11395;53.204;6.502;2023-03-11T04:03:46;19.40;54.50
22456;DHT22;11395;53.204;6.502;2023-03-11T04:08:39;19.60;54.10
22456;DHT22;11395;53.204;6.502;2023-03-11T04:11:07;19.70;53.90
22456;DHT22;11395;53.204;6.502;2023-03-11T04:13:34;19.80;53.90
22456;DHT22;11395;53.204;6.502;2023-03-11T04:16:05;19.80;53.70
22456;DHT22;11395;53.204;6.502;2023-03-11T04:18:33;20.00;53.50
22456;DHT22;11395;53.204;6.502;2023-03-11T04:21:03;20.00;53.40
22456;DHT22;11395;53.204;6.502;2023-03-11T04:23:29;20.00;53.30
22456;DHT22;11395;53.204;6.502;2023-03-11T04:25:56;20.10;53.70
22456;DHT22;11395;53.204;6.502;2023-03-11T04:28:22;20.10;53.30
22456;DHT22;11395;53.204;6.502;2023-03-11T04:30:49;20.10;53.30
22456;DHT22;11395;53.204;6.502;2023-03-11T04:33:15;20.10;53.40
22456;DHT22;11395;53.204;6.502;2023-03-11T04:35:42;20.20;53.70
22456;DHT22;11395;53.204;6.502;2023-03-11T04:38:08;20.20;53.40
22456;DHT22;11395;53.204;6.502;2023-03-11T04:40:36;20.20;53.40
22456;DHT22;11395;53.204;6.502;2023-03-11T04:43:03;20.20;53.20
22456;DHT22;11395;53.204;6.502;2023-03-11T04:45:29;20.20;53.00
22456;DHT22;11395;53.204;6.502;2023-03-11T04:47:57;20.30;53.20
22456;DHT22;11395;53.204;6.502;2023-03-11T04:50:23;20.40;53.00
22456;DHT22;11395;53.204;6.502;2023-03-11T04:52:50;20.50;52.80
22456;DHT22;11395;53.204;6.502;2023-03-11T04:55:17;20.50;52.70
22456;DHT22;11395;53.204;6.502;2023-03-11T04:57:43;20.60;52.60
22456;DHT22;11395;53.204;6.502;2023-03-11T05:00:13;20.70;52.50
22456;DHT22;11395;53.204;6.502;2023-03-11T05:02:42;20.80;52.40
22456;DHT22;11395;53.204;6.502;2023-03-11T05:05:09;20.90;52.30
22456;DHT22;11395;53.204;6.502;2023-03-11T05:07:36;21.00;52.10
22456;DHT22;11395;53.204;6.502;2023-03-11T05:10:04;21.00;52.00
22456;DHT22;11395;53.204;6.502;2023-03-11T05:12:32;21.10;51.80
22456;DHT22;11395;53.204;6.502;2023-03-11T05:14:59;21.20;51.80
22456;DHT22;11395;53.204;6.502;2023-03-11T05:17:25;21.40;51.70
22456;DHT22;11395;53.204;6.502;2023-03-11T05:19:53;21.50;51.60
22456;DHT22;11395;53.204;6.502;2023-03-11T05:22:24;21.60;51.40
22456;DHT22;11395;53.204;6.502;2023-03-11T05:24:50;21.70;51.20
22456;DHT22;11395;53.204;6.502;2023-03-11T05:27:17;21.80;51.00
22456;DHT22;11395;53.204;6.502;2023-03-11T05:29:47;22.00;50.90
22456;DHT22;11395;53.204;6.502;2023-03-11T05:32:14;22.00;51.20
22456;DHT22;11395;53.204;6.502;2023-03-11T05:34:42;22.20;50.70
22456;DHT22;11395;53.204;6.502;2023-03-11T05:37:08;22.30;50.90
22456;DHT22;11395;53.204;6.502;2023-03-11T05:39:35;22.40;51.00
22456;DHT22;11395;53.204;6.502;2023-03-11T05:42:04;22.60;50.70
22456;DHT22;11395;53.204;6.502;2023-03-11T05:44:31;22.70;50.60
22456;DHT22;11395;53.204;6.502;2023-03-11T05:46:57;22.80;50.60
22456;DHT22;11395;53.204;6.502;2023-03-11T05:49:23;22.90;51.00
22456;DHT22;11395;53.204;6.502;2023-03-11T05:51:52;23.00;51.10
22456;DHT22;11395;53.204;6.502;2023-03-11T05:54:19;23.20;51.20
22456;DHT22;11395;53.204;6.502;2023-03-11T05:56:48;23.30;51.10
22456;DHT22;11395;53.204;6.502;2023-03-11T05:59:16;23.30;51.20
22456;DHT22;11395;53.204;6.502;2023-03-11T06:01:46;23.40;51.30
22456;DHT22;11395;53.204;6.502;2023-03-11T06:04:12;23.50;51.20
22456;DHT22;11395;53.204;6.502;2023-03-11T06:06:39;23.50;51.10
22456;DHT22;11395;53.204;6.502;2023-03-11T06:09:10;23.60;51.10
22456;DHT22;11395;53.204;6.502;2023-03-11T06:11:37;23.70;51.10
22456;DHT22;11395;53.204;6.502;2023-03-11T06:14:03;23.70;51.10
22456;DHT22;11395;53.204;6.502;2023-03-11T06:16:30;23.70;51.10
22456;DHT22;11395;53.204;6.502;2023-03-11T06:18:59;23.70;50.90
22456;DHT22;11395;53.204;6.502;2023-03-11T06:21:29;23.70;51.00
22456;DHT22;11395;53.204;6.502;2023-03-11T06:23:55;23.70;50.90
22456;DHT22;11395;53.204;6.502;2023-03-11T06:26:22;23.70;51.20
22456;DHT22;11395;53.204;6.502;2023-03-11T06:28:50;23.70;51.10
22456;DHT22;11395;53.204;6.502;2023-03-11T06:31:20;23.70;51.00
22456;DHT22;11395;53.204;6.502;2023-03-11T06:33:47;23.70;50.80
22456;DHT22;11395;53.204;6.502;2023-03-11T06:36:15;23.60;50.80
22456;DHT22;11395;53.204;6.502;2023-03-11T06:38:42;23.60;50.90
22456;DHT22;11395;53.204;6.502;2023-03-11T06:41:09;23.60;50.90
22456;DHT22;11395;53.204;6.502;2023-03-11T06:43:35;23.70;51.00
22456;DHT22;11395;53.204;6.502;2023-03-11T06:46:29;23.70;50.80
22456;DHT22;11395;53.204;6.502;2023-03-11T06:48:56;23.70;50.90
22456;DHT22;11395;53.204;6.502;2023-03-11T06:51:23;23.80;50.80
22456;DHT22;11395;53.204;6.502;2023-03-11T06:53:51;23.80;50.80
22456;DHT22;11395;53.204;6.502;2023-03-11T06:56:20;23.80;50.20
22456;DHT22;11395;53.204;6.502;2023-03-11T06:58:52;23.80;50.40
22456;DHT22;11395;53.204;6.502;2023-03-11T07:01:22;23.80;50.40
22456;DHT22;11395;53.204;6.502;2023-03-11T07:03:50;23.90;50.40
22456;DHT22;11395;53.204;6.502;2023-03-11T07:06:19;23.90;50.40
22456;DHT22;11395;53.204;6.502;2023-03-11T07:08:48;23.90;50.20
22456;DHT22;11395;53.204;6.502;2023-03-11T07:11:24;23.90;50.30
22456;DHT22;11395;53.204;6.502;2023-03-11T07:13:54;23.90;50.40
22456;DHT22;11395;53.204;6.502;2023-03-11T07:16:23;23.90;50.50
22456;DHT22;11395;53.204;6.502;2023-03-11T07:18:58;23.90;50.30
22456;DHT22;11395;53.204;6.502;2023-03-11T07:21:27;23.90;50.30
22456;DHT22;11395;53.204;6.502;2023-03-11T07:23:55;23.90;50.30
22456;DHT22;11395;53.204;6.502;2023-03-11T07:26:22;23.90;50.30
22456;DHT22;11395;53.204;6.502;2023-03-11T07:28:49;23.90;50.30
22456;DHT22;11395;53.204;6.502;2023-03-11T07:31:19;23.80;50.30
22456;DHT22;11395;53.204;6.502;2023-03-11T07:33:45;23.80;50.40
22456;DHT22;11395;53.204;6.502;2023-03-11T07:36:20;23.80;50.30
22456;DHT22;11395;53.204;6.502;2023-03-11T07:38:48;23.80;50.10
22456;DHT22;11395;53.204;6.502;2023-03-11T07:41:14;23.90;50.50
22456;DHT22;11395;53.204;6.502;2023-03-11T07:43:42;23.90;50.50
22456;DHT22;11395;53.204;6.502;2023-03-11T07:46:14;24.00;50.50
22456;DHT22;11395;53.204;6.502;2023-03-11T07:48:44;24.00;50.50
22456;DHT22;11395;53.204;6.502;2023-03-11T07:51:13;24.10;50.30
22456;DHT22;11395;53.204;6.502;2023-03-11T07:53:40;24.10;49.80
22456;DHT22;11395;53.204;6.502;2023-03-11T07:56:07;24.10;49.80
22456;DHT22;11395;53.204;6.502;2023-03-11T07:58:34;24.10;50.00
22456;DHT22;11395;53.204;6.502;2023-03-11T08:01:05;24.10;50.00
22456;DHT22;11395;53.204;6.502;2023-03-11T08:03:33;24.10;50.00
22456;DHT22;11395;53.204;6.502;2023-03-11T08:06:00;24.10;50.10
22456;DHT22;11395;53.204;6.502;2023-03-11T08:08:27;24.10;50.00
22456;DHT22;11395;53.204;6.502;2023-03-11T08:10:53;24.20;49.90
22456;DHT22;11395;53.204;6.502;2023-03-11T08:13:19;24.20;49.30
22456;DHT22;11395;53.204;6.502;2023-03-11T08:15:45;24.20;49.10
22456;DHT22;11395;53.204;6.502;2023-03-11T08:18:12;24.20;49.60
22456;DHT22;11395;53.204;6.502;2023-03-11T08:20:38;24.20;49.20
22456;DHT22;11395;53.204;6.502;2023-03-11T08:23:05;24.10;49.60
22456;DHT22;11395;53.204;6.502;2023-03-11T08:25:31;24.10;49.40
22456;DHT22;11395;53.204;6.502;2023-03-11T08:27:57;24.10;49.40
22456;DHT22;11395;53.204;6.502;2023-03-11T08:30:23;24.00;49.60
22456;DHT22;11395;53.204;6.502;2023-03-11T08:32:50;23.90;49.80
22456;DHT22;11395;53.204;6.502;2023-03-11T08:35:16;23.90;50.10
22456;DHT22;11395;53.204;6.502;2023-03-11T08:37:42;23.90;50.20
22456;DHT22;11395;53.204;6.502;2023-03-11T08:40:09;23.90;50.20
22456;DHT22;11395;53.204;6.502;2023-03-11T08:42:36;24.00;50.30
22456;DHT22;11395;53.204;6.502;2023-03-11T08:45:02;24.10;50.20
22456;DHT22;11395;53.204;6.502;2023-03-11T08:47:33;24.10;50.20
22456;DHT22;11395;53.204;6.502;2023-03-11T08:50:00;24.20;50.30
22456;DHT22;11395;53.204;6.502;2023-03-11T08:52:26;24.30;50.70
22456;DHT22;11395;53.204;6.502;2023-03-11T08:54:53;24.40;50.60
22456;DHT22;11395;53.204;6.502;2023-03-11T08:57:19;24.60;50.50
22456;DHT22;11395;53.204;6.502;2023-03-11T08:59:45;24.70;50.40
22456;DHT22;11395;53.204;6.502;2023-03-11T09:02:12;24.80;50.20
22456;DHT22;11395;53.204;6.502;2023-03-11T09:04:39;24.90;50.10
22456;DHT22;11395;53.204;6.502;2023-03-11T09:07:05;25.00;50.00
22456;DHT22;11395;53.204;6.502;2023-03-11T09:09:31;25.10;49.50
22456;DHT22;11395;53.204;6.502;2023-03-11T09:11:57;25.10;49.60
22456;DHT22;11395;53.204;6.502;2023-03-11T09:14:24;25.10;49.50
22456;DHT22;11395;53.204;6.502;2023-03-11T09:16:50;25.20;49.50
22456;DHT22;11395;53.204;6.502;2023-03-11T09:19:16;25.20;49.40
22456;DHT22;11395;53.204;6.502;2023-03-11T09:21:42;25.20;49.40
22456;DHT22;11395;53.204;6.502;2023-03-11T09:24:09;25.30;49.40
22456;DHT22;11395;53.204;6.502;2023-03-11T09:26:35;25.30;49.30
22456;DHT22;11395;53.204;6.502;2023-03-11T09:29:01;25.30;49.30
22456;DHT22;11395;53.204;6.502;2023-03-11T09:31:27;25.30;49.20
22456;DHT22;11395;53.204;6.502;2023-03-11T09:33:54;25.30;49.10
22456;DHT22;11395;53.204;6.502;2023-03-11T09:36:21;25.40;49.10
22456;DHT22;11395;53.204;6.502;2023-03-11T09:38:48;25.40;49.00
22456;DHT22;11395;53.204;6.502;2023-03-11T09:52:14;25.50;48.60
22456;DHT22;11395;53.204;6.502;2023-03-11T09:54:47;25.50;48.50
22456;DHT22;11395;53.204;6.502;2023-03-11T09:57:18;25.60;48.50
22456;DHT22;11395;53.204;6.502;2023-03-11T09:59:45;25.60;48.30
22456;DHT22;11395;53.204;6.502;2023-03-11T10:02:20;25.60;48.30
22456;DHT22;11395;53.204;6.502;2023-03-11T10:05:05;25.50;48.20
22456;DHT22;11395;53.204;6.502;2023-03-11T10:07:39;25.50;48.20
22456;DHT22;11395;53.204;6.502;2023-03-11T10:10:11;25.50;48.20
22456;DHT22;11395;53.204;6.502;2023-03-11T10:16:23;25.50;48.10
22456;DHT22;11395;53.204;6.502;2023-03-11T10:18:43;25.50;48.20
22456;DHT22;11395;53.204;6.502;2023-03-11T10:24:18;25.40;48.10
22456;DHT22;11395;53.204;6.502;2023-03-11T10:26:50;25.40;48.20
22456;DHT22;11395;53.204;6.502;2023-03-11T10:29:28;25.30;48.10
22456;DHT22;11395;53.204;6.502;2023-03-11T10:34:38;25.30;48.10
22456;DHT22;11395;53.204;6.502;2023-03-11T10:37:34;25.30;48.10
22456;DHT22;11395;53.204;6.502;2023-03-11T10:40:18;25.30;48.10
22456;DHT22;11395;53.204;6.502;2023-03-11T10:42:47;25.30;48.10
22456;DHT22;11395;53.204;6.502;2023-03-11T10:45:14;25.30;48.10
22456;DHT22;11395;53.204;6.502;2023-03-11T10:47:40;25.30;48.00
22456;DHT22;11395;53.204;6.502;2023-03-11T10:50:13;25.60;48.20
22456;DHT22;11395;53.204;6.502;2023-03-11T10:53:04;25.30;48.00
22456;DHT22;11395;53.204;6.502;2023-03-11T10:55:31;25.30;48.00
22456;DHT22;11395;53.204;6.502;2023-03-11T10:58:11;25.30;48.00
22456;DHT22;11395;53.204;6.502;2023-03-11T11:00:38;25.20;48.00
22456;DHT22;11395;53.204;6.502;2023-03-11T11:03:14;25.30;48.00
22456;DHT22;11395;53.204;6.502;2023-03-11T11:05:41;25.30;48.10
22456;DHT22;11395;53.204;6.502;2023-03-11T11:08:14;25.30;48.10
22456;DHT22;11395;53.204;6.502;2023-03-11T11:10:52;25.30;48.20
22456;DHT22;11395;53.204;6.502;2023-03-11T11:13:20;25.30;48.10
22456;DHT22;11395;53.204;6.502;2023-03-11T11:18:55;25.30;48.20
22456;DHT22;11395;53.204;6.502;2023-03-11T11:24:26;25.30;48.20
22456;DHT22;11395;53.204;6.502;2023-03-11T11:27:15;25.30;48.20
22456;DHT22;11395;53.204;6.502;2023-03-11T11:29:42;25.30;48.30
22456;DHT22;11395;53.204;6.502;2023-03-11T11:34:58;25.30;48.30
22456;DHT22;11395;53.204;6.502;2023-03-11T11:37:27;25.30;48.30
22456;DHT22;11395;53.204;6.502;2023-03-11T11:40:06;25.30;48.30
22456;DHT22;11395;53.204;6.502;2023-03-11T11:42:37;25.30;48.40
22456;DHT22;11395;53.204;6.502;2023-03-11T11:47:48;25.30;48.50
22456;DHT22;11395;53.204;6.502;2023-03-11T11:50:32;25.20;48.50
22456;DHT22;11395;53.204;6.502;2023-03-11T11:55:52;25.20;48.60
22456;DHT22;11395;53.204;6.502;2023-03-11T11:58:20;25.10;48.70
22456;DHT22;11395;53.204;6.502;2023-03-11T12:12:44;25.00;49.00
22456;DHT22;11395;53.204;6.502;2023-03-11T12:17:41;25.00;49.30
22456;DHT22;11395;53.204;6.502;2023-03-11T12:20:32;24.90;49.30
22456;DHT22;11395;53.204;6.502;2023-03-11T12:23:15;24.90;49.30
22456;DHT22;11395;53.204;6.502;2023-03-11T12:26:03;24.90;49.40
22456;DHT22;11395;53.204;6.502;2023-03-11T12:29:06;24.90;49.60
22456;DHT22;11395;53.204;6.502;2023-03-11T12:31:36;24.80;49.60
22456;DHT22;11395;53.204;6.502;2023-03-11T12:34:06;24.80;49.60
22456;DHT22;11395;53.204;6.502;2023-03-11T12:36:40;24.80;49.70
22456;DHT22;11395;53.204;6.502;2023-03-11T12:39:23;24.70;49.70
22456;DHT22;11395;53.204;6.502;2023-03-11T12:44:39;24.60;49.80
22456;DHT22;11395;53.204;6.502;2023-03-11T12:49:45;24.60;50.00
22456;DHT22;11395;53.204;6.502;2023-03-11T12:54:46;24.60;50.10
22456;DHT22;11395;53.204;6.502;2023-03-11T13:03:09;24.40;50.40
22456;DHT22;11395;53.204;6.502;2023-03-11T13:08:16;24.30;49.70
22456;DHT22;11395;53.204;6.502;2023-03-11T13:10:49;24.30;49.90
22456;DHT22;11395;53.204;6.502;2023-03-11T13:18:43;24.10;50.20
22456;DHT22;11395;53.204;6.502;2023-03-11T13:26:59;23.90;50.30
22456;DHT22;11395;53.204;6.502;2023-03-11T13:32:35;23.80;50.50
22456;DHT22;11395;53.204;6.502;2023-03-11T13:41:20;23.60;51.00
22456;DHT22;11395;53.204;6.502;2023-03-11T13:43:49;23.60;51.10
22456;DHT22;11395;53.204;6.502;2023-03-11T13:46:36;23.60;51.10
22456;DHT22;11395;53.204;6.502;2023-03-11T13:49:12;23.60;51.20
22456;DHT22;11395;53.204;6.502;2023-03-11T13:51:44;23.50;50.80
22456;DHT22;11395;53.204;6.502;2023-03-11T13:56:57;23.50;51.10
22456;DHT22;11395;53.204;6.502;2023-03-11T13:59:30;23.50;51.10
22456;DHT22;11395;53.204;6.502;2023-03-11T14:02:18;23.50;51.10
22456;DHT22;11395;53.204;6.502;2023-03-11T14:05:05;23.50;51.00
22456;DHT22;11395;53.204;6.502;2023-03-11T14:07:33;23.60;51.00
22456;DHT22;11395;53.204;6.502;2023-03-11T14:10:23;23.60;51.00
22456;DHT22;11395;53.204;6.502;2023-03-11T14:12:50;23.60;51.00
22456;DHT22;11395;53.204;6.502;2023-03-11T14:17:46;23.60;50.90
22456;DHT22;11395;53.204;6.502;2023-03-11T14:20:18;23.60;50.90
22456;DHT22;11395;53.204;6.502;2023-03-11T14:22:56;23.60;51.00
22456;DHT22;11395;53.204;6.502;2023-03-11T14:25:25;23.60;51.10
22456;DHT22;11395;53.204;6.502;2023-03-11T14:27:54;23.60;51.10
22456;DHT22;11395;53.204;6.502;2023-03-11T14:30:33;23.60;51.20
22456;DHT22;11395;53.204;6.502;2023-03-11T14:33:19;23.60;51.30
22456;DHT22;11395;53.204;6.502;2023-03-11T14:35:59;23.60;51.40
22456;DHT22;11395;53.204;6.502;2023-03-11T14:38:29;23.70;51.60
22456;DHT22;11395;53.204;6.502;2023-03-11T14:41:00;23.70;51.80
22456;DHT22;11395;53.204;6.502;2023-03-11T14:43:38;23.70;51.90
22456;DHT22;11395;53.204;6.502;2023-03-11T14:46:06;23.70;52.00
22456;DHT22;11395;53.204;6.502;2023-03-11T14:48:42;23.60;52.10
22456;DHT22;11395;53.204;6.502;2023-03-11T14:51:30;23.70;52.30
22456;DHT22;11395;53.204;6.502;2023-03-11T14:54:07;23.70;52.40
22456;DHT22;11395;53.204;6.502;2023-03-11T14:56:43;23.70;52.50
22456;DHT22;11395;53.204;6.502;2023-03-11T14:59:22;23.70;52.90
22456;DHT22;11395;53.204;6.502;2023-03-11T15:01:53;23.60;52.60
22456;DHT22;11395;53.204;6.502;2023-03-11T15:04:34;23.60;52.50
22456;DHT22;11395;53.204;6.502;2023-03-11T15:07:03;23.60;52.80
22456;DHT22;11395;53.204;6.502;2023-03-11T15:09:30;23.50;52.70
22456;DHT22;11395;53.204;6.502;2023-03-11T15:11:59;23.50;52.90
22456;DHT22;11395;53.204;6.502;2023-03-11T15:14:28;23.40;52.90
22456;DHT22;11395;53.204;6.502;2023-03-11T15:17:27;23.40;53.20
22456;DHT22;11395;53.204;6.502;2023-03-11T15:19:55;23.40;53.30
22456;DHT22;11395;53.204;6.502;2023-03-11T15:22:28;23.40;53.40
22456;DHT22;11395;53.204;6.502;2023-03-11T15:24:58;23.40;53.40
22456;DHT22;11395;53.204;6.502;2023-03-11T15:27:32;23.50;53.60
22456;DHT22;11395;53.204;6.502;2023-03-11T15:30:00;23.50;53.60
22456;DHT22;11395;53.204;6.502;2023-03-11T15:32:42;23.50;53.50
22456;DHT22;11395;53.204;6.502;2023-03-11T15:37:39;23.70;53.50
22456;DHT22;11395;53.204;6.502;2023-03-11T15:42:44;23.80;53.40
22456;DHT22;11395;53.204;6.502;2023-03-11T15:45:20;23.80;53.30
22456;DHT22;11395;53.204;6.502;2023-03-11T15:47:47;23.80;53.10
22456;DHT22;11395;53.204;6.502;2023-03-11T15:50:16;23.90;53.10
22456;DHT22;11395;53.204;6.502;2023-03-11T15:52:45;23.90;53.10
22456;DHT22;11395;53.204;6.502;2023-03-11T15:55:11;23.90;52.90
22456;DHT22;11395;53.204;6.502;2023-03-11T15:57:39;23.80;53.70
22456;DHT22;11395;53.204;6.502;2023-03-11T16:00:19;23.80;52.60
22456;DHT22;11395;53.204;6.502;2023-03-11T16:02:48;23.80;52.90
22456;DHT22;11395;53.204;6.502;2023-03-11T16:05:20;23.80;53.00
22456;DHT22;11395;53.204;6.502;2023-03-11T16:07:47;23.80;53.10
22456;DHT22;11395;53.204;6.502;2023-03-11T16:10:18;23.80;53.00
22456;DHT22;11395;53.204;6.502;2023-03-11T16:12:45;23.70;53.10
22456;DHT22;11395;53.204;6.502;2023-03-11T16:15:33;23.70;53.20
22456;DHT22;11395;53.204;6.502;2023-03-11T16:18:02;23.70;53.30
22456;DHT22;11395;53.204;6.502;2023-03-11T16:20:33;23.70;53.40
22456;DHT22;11395;53.204;6.502;2023-03-11T16:23:02;23.70;53.50
22456;DHT22;11395;53.204;6.502;2023-03-11T16:25:37;23.70;53.50
22456;DHT22;11395;53.204;6.502;2023-03-11T16:28:10;23.70;53.70
22456;DHT22;11395;53.204;6.502;2023-03-11T16:30:38;23.70;53.80
22456;DHT22;11395;53.204;6.502;2023-03-11T16:33:04;23.60;53.70
22456;DHT22;11395;53.204;6.502;2023-03-11T16:35:30;23.60;53.90
22456;DHT22;11395;53.204;6.502;2023-03-11T16:37:57;23.60;53.60
22456;DHT22;11395;53.204;6.502;2023-03-11T16:40:25;23.60;53.70
22456;DHT22;11395;53.204;6.502;2023-03-11T16:43:00;23.60;53.60
22456;DHT22;11395;53.204;6.502;2023-03-11T16:45:27;23.60;53.80
22456;DHT22;11395;53.204;6.502;2023-03-11T16:47:53;23.50;53.90
22456;DHT22;11395;53.204;6.502;2023-03-11T16:50:19;23.50;54.40
22456;DHT22;11395;53.204;6.502;2023-03-11T16:52:46;23.50;55.20
22456;DHT22;11395;53.204;6.502;2023-03-11T16:55:12;23.50;54.70
22456;DHT22;11395;53.204;6.502;2023-03-11T16:57:39;23.50;55.00
22456;DHT22;11395;53.204;6.502;2023-03-11T17:00:06;23.60;54.90
22456;DHT22;11395;53.204;6.502;2023-03-11T17:02:35;23.60;54.60
22456;DHT22;11395;53.204;6.502;2023-03-11T17:05:03;23.70;54.60
22456;DHT22;11395;53.204;6.502;2023-03-11T17:07:31;23.70;54.40
22456;DHT22;11395;53.204;6.502;2023-03-11T17:09:58;23.80;54.30
22456;DHT22;11395;53.204;6.502;2023-03-11T17:12:26;23.80;54.20
22456;DHT22;11395;53.204;6.502;2023-03-11T17:14:53;23.90;54.00
22456;DHT22;11395;53.204;6.502;2023-03-11T17:17:21;23.90;53.80
22456;DHT22;11395;53.204;6.502;2023-03-11T17:19:48;23.90;53.70
22456;DHT22;11395;53.204;6.502;2023-03-11T17:22:17;24.00;53.60
22456;DHT22;11395;53.204;6.502;2023-03-11T17:24:58;24.00;53.50
22456;DHT22;11395;53.204;6.502;2023-03-11T17:27:45;24.00;54.30
22456;DHT22;11395;53.204;6.502;2023-03-11T17:30:12;24.00;54.10